sensor_id;sensor_type;location;lat;lon;timestamp;P1;durP1;ratioP1;P2;durP2;ratioP2
14316;SDS011;7242;50.858;6.586;2023-08-20T00:00:40;4.03;;;3.20;;
14316;SDS011;7242;50.858;6.586;2023-08-20T00:03:43;5.87;;;3.17;;
14316;SDS011;7242;50.858;6.586;2023-08-20T00:06:46;4.20;;;3.80;;
14316;SDS011;7242;50.858;6.586;2023-08-20T00:09:47;3.90;;;3.30;;
14316;SDS011;7242;50.858;6.586;2023-08-20T00:12:47;4.63;;;3.23;;
14316;SDS011;7242;50.858;6.586;2023-08-20T00:15:49;4.37;;;2.87;;
14316;SDS011;7242;50.858;6.586;2023-08-20T00:18:49;3.77;;;3.00;;
14316;SDS011;7242;50.858;6.586;2023-08-20T00:21:50;3.53;;;3.00;;
14316;SDS011;7242;50.858;6.586;2023-08-20T00:24:54;4.77;;;3.63;;
14316;SDS011;7242;50.858;6.586;2023-08-20T00:27:55;6.43;;;3.33;;
14316;SDS011;7242;50.858;6.586;2023-08-20T00:30:56;6.47;;;3.67;;
14316;SDS011;7242;50.858;6.586;2023-08-20T00:33:56;6.20;;;3.50;;
14316;SDS011;7242;50.858;6.586;2023-08-20T00:36:58;3.63;;;3.33;;
14316;SDS011;7242;50.858;6.586;2023-08-20T00:39:58;4.93;;;3.50;;
14316;SDS011;7242;50.858;6.586;2023-08-20T00:42:59;3.87;;;3.23;;
14316;SDS011;7242;50.858;6.586;2023-08-20T00:46:01;3.97;;;3.30;;
14316;SDS011;7242;50.858;6.586;2023-08-20T00:49:02;3.70;;;3.30;;
14316;SDS011;7242;50.858;6.586;2023-08-20T00:52:03;5.37;;;3.10;;
14316;SDS011;7242;50.858;6.586;2023-08-20T00:55:08;4.33;;;3.10;;
14316;SDS011;7242;50.858;6.586;2023-08-20T00:58:10;4.13;;;3.00;;
14316;SDS011;7242;50.858;6.586;2023-08-20T01:01:12;5.60;;;3.50;;
14316;SDS011;7242;50.858;6.586;2023-08-20T01:04:12;7.30;;;3.20;;
14316;SDS011;7242;50.858;6.586;2023-08-20T01:10:57;5.07;;;3.43;;
14316;SDS011;7242;50.858;6.586;2023-08-20T01:13:58;4.43;;;2.80;;
14316;SDS011;7242;50.858;6.586;2023-08-20T01:16:59;7.13;;;3.80;;
14316;SDS011;7242;50.858;6.586;2023-08-20T01:19:59;5.77;;;3.90;;
14316;SDS011;7242;50.858;6.586;2023-08-20T01:29:49;5.80;;;3.77;;
14316;SDS011;7242;50.858;6.586;2023-08-20T01:32:53;5.57;;;4.70;;
14316;SDS011;7242;50.858;6.586;2023-08-20T01:35:54;7.33;;;4.93;;
14316;SDS011;7242;50.858;6.586;2023-08-20T01:38:55;7.50;;;5.13;;
14316;SDS011;7242;50.858;6.586;2023-08-20T01:41:57;6.93;;;4.57;;
14316;SDS011;7242;50.858;6.586;2023-08-20T01:45:00;10.60;;;5.40;;
14316;SDS011;7242;50.858;6.586;2023-08-20T01:48:01;5.03;;;4.60;;
14316;SDS011;7242;50.858;6.586;2023-08-20T01:51:03;9.13;;;5.73;;
14316;SDS011;7242;50.858;6.586;2023-08-20T01:54:04;6.80;;;5.00;;
14316;SDS011;7242;50.858;6.586;2023-08-20T01:57:05;6.90;;;5.17;;
14316;SDS011;7242;50.858;6.586;2023-08-20T02:00:06;6.07;;;5.30;;
14316;SDS011;7242;50.858;6.586;2023-08-20T02:03:13;6.77;;;5.70;;
14316;SDS011;7242;50.858;6.586;2023-08-20T02:06:14;6.80;;;4.93;;
14316;SDS011;7242;50.858;6.586;2023-08-20T02:09:19;6.00;;;5.17;;
14316;SDS011;7242;50.858;6.586;2023-08-20T02:12:20;5.70;;;5.20;;
14316;SDS011;7242;50.858;6.586;2023-08-20T02:15:21;6.77;;;5.40;;
14316;SDS011;7242;50.858;6.586;2023-08-20T02:18:22;7.07;;;5.13;;
14316;SDS011;7242;50.858;6.586;2023-08-20T02:21:23;6.57;;;5.37;;
14316;SDS011;7242;50.858;6.586;2023-08-20T02:24:24;5.73;;;4.77;;
14316;SDS011;7242;50.858;6.586;2023-08-20T02:27:25;6.23;;;5.63;;
14316;SDS011;7242;50.858;6.586;2023-08-20T02:30:27;7.33;;;5.37;;
14316;SDS011;7242;50.858;6.586;2023-08-20T02:33:27;6.80;;;5.30;;
14316;SDS011;7242;50.858;6.586;2023-08-20T02:36:28;6.97;;;5.87;;
14316;SDS011;7242;50.858;6.586;2023-08-20T02:39:29;5.83;;;5.03;;
14316;SDS011;7242;50.858;6.586;2023-08-20T02:42:31;5.50;;;4.53;;
14316;SDS011;7242;50.858;6.586;2023-08-20T02:45:32;5.20;;;4.57;;
14316;SDS011;7242;50.858;6.586;2023-08-20T02:48:32;6.70;;;5.03;;
14316;SDS011;7242;50.858;6.586;2023-08-20T02:51:34;7.07;;;5.20;;
14316;SDS011;7242;50.858;6.586;2023-08-20T02:54:34;6.13;;;5.20;;
14316;SDS011;7242;50.858;6.586;2023-08-20T02:57:35;6.73;;;5.03;;
14316;SDS011;7242;50.858;6.586;2023-08-20T03:00:36;6.20;;;5.47;;
14316;SDS011;7242;50.858;6.586;2023-08-20T03:03:37;5.90;;;5.30;;
14316;SDS011;7242;50.858;6.586;2023-08-20T03:06:38;5.90;;;5.30;;
14316;SDS011;7242;50.858;6.586;2023-08-20T03:09:39;9.60;;;5.40;;
14316;SDS011;7242;50.858;6.586;2023-08-20T03:12:39;6.60;;;5.13;;
14316;SDS011;7242;50.858;6.586;2023-08-20T03:15:40;5.43;;;4.80;;
14316;SDS011;7242;50.858;6.586;2023-08-20T03:18:42;6.07;;;4.60;;
14316;SDS011;7242;50.858;6.586;2023-08-20T03:21:42;6.80;;;5.17;;
14316;SDS011;7242;50.858;6.586;2023-08-20T03:24:43;6.43;;;5.23;;
14316;SDS011;7242;50.858;6.586;2023-08-20T03:27:44;9.20;;;5.50;;
14316;SDS011;7242;50.858;6.586;2023-08-20T03:30:45;5.73;;;5.13;;
14316;SDS011;7242;50.858;6.586;2023-08-20T03:33:50;9.83;;;5.60;;
14316;SDS011;7242;50.858;6.586;2023-08-20T03:36:51;8.07;;;4.87;;
14316;SDS011;7242;50.858;6.586;2023-08-20T03:39:52;9.53;;;5.50;;
14316;SDS011;7242;50.858;6.586;2023-08-20T03:42:54;7.47;;;5.43;;
14316;SDS011;7242;50.858;6.586;2023-08-20T03:45:55;8.90;;;5.50;;
14316;SDS011;7242;50.858;6.586;2023-08-20T03:48:56;7.30;;;5.20;;
14316;SDS011;7242;50.858;6.586;2023-08-20T03:51:57;11.27;;;5.60;;
14316;SDS011;7242;50.858;6.586;2023-08-20T03:54:57;11.23;;;6.37;;
14316;SDS011;7242;50.858;6.586;2023-08-20T03:57:58;9.80;;;5.93;;
14316;SDS011;7242;50.858;6.586;2023-08-20T04:00:59;13.67;;;6.17;;
14316;SDS011;7242;50.858;6.586;2023-08-20T04:04:00;12.93;;;6.60;;
14316;SDS011;7242;50.858;6.586;2023-08-20T04:07:00;9.93;;;6.00;;
14316;SDS011;7242;50.858;6.586;2023-08-20T04:10:02;9.73;;;6.77;;
14316;SDS011;7242;50.858;6.586;2023-08-20T04:13:03;11.77;;;6.33;;
14316;SDS011;7242;50.858;6.586;2023-08-20T04:16:04;11.43;;;7.00;;
14316;SDS011;7242;50.858;6.586;2023-08-20T04:19:06;10.23;;;7.20;;
14316;SDS011;7242;50.858;6.586;2023-08-20T04:22:07;11.17;;;7.77;;
14316;SDS011;7242;50.858;6.586;2023-08-20T04:25:08;10.63;;;6.90;;
14316;SDS011;7242;50.858;6.586;2023-08-20T04:28:08;10.97;;;8.00;;
14316;SDS011;7242;50.858;6.586;2023-08-20T04:31:09;10.20;;;7.80;;
14316;SDS011;7242;50.858;6.586;2023-08-20T04:34:36;10.40;;;7.37;;
14316;SDS011;7242;50.858;6.586;2023-08-20T04:37:36;11.50;;;6.97;;
14316;SDS011;7242;50.858;6.586;2023-08-20T04:40:37;10.23;;;6.80;;
14316;SDS011;7242;50.858;6.586;2023-08-20T04:43:39;9.43;;;7.03;;
14316;SDS011;7242;50.858;6.586;2023-08-20T04:46:40;10.57;;;7.60;;
14316;SDS011;7242;50.858;6.586;2023-08-20T04:49:43;11.37;;;7.67;;
14316;SDS011;7242;50.858;6.586;2023-08-20T04:52:43;12.07;;;7.67;;
14316;SDS011;7242;50.858;6.586;2023-08-20T04:55:45;9.30;;;7.33;;
14316;SDS011;7242;50.858;6.586;2023-08-20T04:58:46;9.87;;;7.70;;
14316;SDS011;7242;50.858;6.586;2023-08-20T05:01:52;9.20;;;7.47;;
14316;SDS011;7242;50.858;6.586;2023-08-20T05:05:07;12.70;;;7.40;;
14316;SDS011;7242;50.858;6.586;2023-08-20T05:08:09;10.93;;;6.53;;
14316;SDS011;7242;50.858;6.586;2023-08-20T05:11:10;12.37;;;8.20;;
14316;SDS011;7242;50.858;6.586;2023-08-20T05:14:11;13.73;;;8.13;;
14316;SDS011;7242;50.858;6.586;2023-08-20T05:17:11;11.67;;;8.90;;
14316;SDS011;7242;50.858;6.586;2023-08-20T05:20:12;11.70;;;8.17;;
14316;SDS011;7242;50.858;6.586;2023-08-20T05:23:14;10.93;;;8.80;;
14316;SDS011;7242;50.858;6.586;2023-08-20T05:26:15;11.53;;;8.60;;
14316;SDS011;7242;50.858;6.586;2023-08-20T05:29:17;11.50;;;8.67;;
14316;SDS011;7242;50.858;6.586;2023-08-20T05:32:18;11.53;;;8.37;;
14316;SDS011;7242;50.858;6.586;2023-08-20T05:35:19;10.43;;;8.73;;
14316;SDS011;7242;50.858;6.586;2023-08-20T05:38:20;12.47;;;8.53;;
14316;SDS011;7242;50.858;6.586;2023-08-20T05:41:22;10.20;;;8.53;;
14316;SDS011;7242;50.858;6.586;2023-08-20T05:44:24;10.50;;;8.50;;
14316;SDS011;7242;50.858;6.586;2023-08-20T05:47:24;9.60;;;8.17;;
14316;SDS011;7242;50.858;6.586;2023-08-20T05:50:25;10.60;;;7.70;;
14316;SDS011;7242;50.858;6.586;2023-08-20T05:53:26;10.67;;;8.70;;
14316;SDS011;7242;50.858;6.586;2023-08-20T05:56:27;14.37;;;9.60;;
14316;SDS011;7242;50.858;6.586;2023-08-20T05:59:28;8.67;;;7.63;;
14316;SDS011;7242;50.858;6.586;2023-08-20T06:02:29;12.43;;;8.67;;
14316;SDS011;7242;50.858;6.586;2023-08-20T06:05:30;13.17;;;9.37;;
14316;SDS011;7242;50.858;6.586;2023-08-20T06:08:31;11.13;;;9.17;;
14316;SDS011;7242;50.858;6.586;2023-08-20T06:11:32;15.80;;;10.50;;
14316;SDS011;7242;50.858;6.586;2023-08-20T06:14:33;11.00;;;8.90;;
14316;SDS011;7242;50.858;6.586;2023-08-20T06:17:34;10.03;;;8.30;;
14316;SDS011;7242;50.858;6.586;2023-08-20T06:20:35;11.77;;;8.33;;
14316;SDS011;7242;50.858;6.586;2023-08-20T06:23:36;15.60;;;9.20;;
14316;SDS011;7242;50.858;6.586;2023-08-20T06:26:36;9.17;;;8.20;;
14316;SDS011;7242;50.858;6.586;2023-08-20T06:29:37;9.90;;;8.90;;
14316;SDS011;7242;50.858;6.586;2023-08-20T06:32:38;11.37;;;8.13;;
14316;SDS011;7242;50.858;6.586;2023-08-20T06:35:39;10.53;;;8.70;;
14316;SDS011;7242;50.858;6.586;2023-08-20T06:38:41;11.10;;;9.87;;
14316;SDS011;7242;50.858;6.586;2023-08-20T06:41:42;13.20;;;9.67;;
14316;SDS011;7242;50.858;6.586;2023-08-20T06:44:53;16.10;;;10.17;;
14316;SDS011;7242;50.858;6.586;2023-08-20T06:47:54;10.50;;;9.40;;
14316;SDS011;7242;50.858;6.586;2023-08-20T06:50:54;11.83;;;8.17;;
14316;SDS011;7242;50.858;6.586;2023-08-20T06:53:55;13.50;;;8.37;;
14316;SDS011;7242;50.858;6.586;2023-08-20T06:56:57;12.00;;;8.30;;
14316;SDS011;7242;50.858;6.586;2023-08-20T06:59:58;8.87;;;6.70;;
14316;SDS011;7242;50.858;6.586;2023-08-20T07:02:59;10.90;;;7.30;;
14316;SDS011;7242;50.858;6.586;2023-08-20T07:05:59;10.67;;;7.07;;
14316;SDS011;7242;50.858;6.586;2023-08-20T07:09:00;9.95;;;6.88;;
14316;SDS011;7242;50.858;6.586;2023-08-20T07:12:02;10.48;;;6.82;;
14316;SDS011;7242;50.858;6.586;2023-08-20T07:15:03;10.45;;;6.50;;
14316;SDS011;7242;50.858;6.586;2023-08-20T07:18:05;7.20;;;5.20;;
14316;SDS011;7242;50.858;6.586;2023-08-20T07:21:05;9.27;;;7.63;;
14316;SDS011;7242;50.858;6.586;2023-08-20T07:24:07;7.63;;;5.78;;
14316;SDS011;7242;50.858;6.586;2023-08-20T07:27:08;10.15;;;7.05;;
14316;SDS011;7242;50.858;6.586;2023-08-20T07:30:12;6.43;;;5.32;;
14316;SDS011;7242;50.858;6.586;2023-08-20T07:33:13;10.90;;;6.25;;
14316;SDS011;7242;50.858;6.586;2023-08-20T07:36:14;13.55;;;8.60;;
14316;SDS011;7242;50.858;6.586;2023-08-20T07:39:15;10.55;;;6.78;;
14316;SDS011;7242;50.858;6.586;2023-08-20T07:42:15;8.70;;;5.65;;
14316;SDS011;7242;50.858;6.586;2023-08-20T07:45:18;6.47;;;4.53;;
14316;SDS011;7242;50.858;6.586;2023-08-20T07:48:19;7.30;;;5.45;;
14316;SDS011;7242;50.858;6.586;2023-08-20T07:51:20;11.13;;;7.15;;
14316;SDS011;7242;50.858;6.586;2023-08-20T07:54:20;8.13;;;5.60;;
14316;SDS011;7242;50.858;6.586;2023-08-20T07:57:21;8.23;;;5.80;;
14316;SDS011;7242;50.858;6.586;2023-08-20T08:00:23;8.80;;;5.90;;
14316;SDS011;7242;50.858;6.586;2023-08-20T08:03:24;10.68;;;6.38;;
14316;SDS011;7242;50.858;6.586;2023-08-20T08:06:26;7.93;;;5.20;;
14316;SDS011;7242;50.858;6.586;2023-08-20T08:09:28;6.45;;;4.22;;
14316;SDS011;7242;50.858;6.586;2023-08-20T08:12:30;10.00;;;5.63;;
14316;SDS011;7242;50.858;6.586;2023-08-20T08:15:31;9.25;;;6.40;;
14316;SDS011;7242;50.858;6.586;2023-08-20T08:18:31;8.85;;;5.65;;
14316;SDS011;7242;50.858;6.586;2023-08-20T08:21:32;6.35;;;4.75;;
14316;SDS011;7242;50.858;6.586;2023-08-20T08:24:33;12.32;;;6.75;;
14316;SDS011;7242;50.858;6.586;2023-08-20T08:27:33;10.55;;;6.68;;
14316;SDS011;7242;50.858;6.586;2023-08-20T08:30:34;7.65;;;5.57;;
14316;SDS011;7242;50.858;6.586;2023-08-20T08:33:35;9.52;;;6.30;;
14316;SDS011;7242;50.858;6.586;2023-08-20T08:36:36;11.57;;;6.40;;
14316;SDS011;7242;50.858;6.586;2023-08-20T08:39:37;12.35;;;6.47;;
14316;SDS011;7242;50.858;6.586;2023-08-20T08:42:37;9.25;;;7.15;;
14316;SDS011;7242;50.858;6.586;2023-08-20T08:45:40;10.10;;;6.18;;
14316;SDS011;7242;50.858;6.586;2023-08-20T08:48:44;9.65;;;6.47;;
14316;SDS011;7242;50.858;6.586;2023-08-20T08:51:46;8.88;;;6.25;;
14316;SDS011;7242;50.858;6.586;2023-08-20T08:54:47;8.25;;;7.43;;
14316;SDS011;7242;50.858;6.586;2023-08-20T08:57:48;10.10;;;6.53;;
14316;SDS011;7242;50.858;6.586;2023-08-20T09:00:49;9.77;;;7.53;;
14316;SDS011;7242;50.858;6.586;2023-08-20T09:03:50;8.95;;;6.40;;
14316;SDS011;7242;50.858;6.586;2023-08-20T09:06:52;11.10;;;5.87;;
14316;SDS011;7242;50.858;6.586;2023-08-20T09:09:57;11.48;;;6.55;;
14316;SDS011;7242;50.858;6.586;2023-08-20T09:13:02;8.40;;;5.07;;
14316;SDS011;7242;50.858;6.586;2023-08-20T09:16:06;9.37;;;5.87;;
14316;SDS011;7242;50.858;6.586;2023-08-20T09:19:08;9.83;;;6.80;;
14316;SDS011;7242;50.858;6.586;2023-08-20T09:22:11;8.37;;;5.50;;
14316;SDS011;7242;50.858;6.586;2023-08-20T09:25:15;6.70;;;5.87;;
14316;SDS011;7242;50.858;6.586;2023-08-20T09:28:17;8.27;;;6.33;;
14316;SDS011;7242;50.858;6.586;2023-08-20T09:31:18;11.27;;;6.90;;
14316;SDS011;7242;50.858;6.586;2023-08-20T09:34:18;5.87;;;5.27;;
14316;SDS011;7242;50.858;6.586;2023-08-20T09:37:20;7.80;;;6.83;;
14316;SDS011;7242;50.858;6.586;2023-08-20T09:40:22;8.47;;;5.83;;
14316;SDS011;7242;50.858;6.586;2023-08-20T09:43:24;7.77;;;5.63;;
14316;SDS011;7242;50.858;6.586;2023-08-20T09:46:30;9.00;;;6.07;;
14316;SDS011;7242;50.858;6.586;2023-08-20T09:49:35;8.77;;;5.10;;
14316;SDS011;7242;50.858;6.586;2023-08-20T09:52:39;11.13;;;7.47;;
14316;SDS011;7242;50.858;6.586;2023-08-20T09:55:47;6.10;;;4.83;;
14316;SDS011;7242;50.858;6.586;2023-08-20T09:58:51;5.57;;;4.83;;
14316;SDS011;7242;50.858;6.586;2023-08-20T10:01:54;6.83;;;5.30;;
14316;SDS011;7242;50.858;6.586;2023-08-20T10:04:57;6.83;;;4.27;;
14316;SDS011;7242;50.858;6.586;2023-08-20T10:08:01;7.23;;;4.73;;
14316;SDS011;7242;50.858;6.586;2023-08-20T10:11:02;5.27;;;4.30;;
14316;SDS011;7242;50.858;6.586;2023-08-20T10:14:03;8.20;;;5.10;;
14316;SDS011;7242;50.858;6.586;2023-08-20T10:17:13;7.07;;;4.77;;
14316;SDS011;7242;50.858;6.586;2023-08-20T10:20:15;8.40;;;5.40;;
14316;SDS011;7242;50.858;6.586;2023-08-20T10:23:21;7.90;;;5.17;;
14316;SDS011;7242;50.858;6.586;2023-08-20T10:26:23;8.87;;;4.93;;
14316;SDS011;7242;50.858;6.586;2023-08-20T10:29:38;6.40;;;5.40;;
14316;SDS011;7242;50.858;6.586;2023-08-20T10:32:47;8.57;;;6.27;;
14316;SDS011;7242;50.858;6.586;2023-08-20T10:35:49;9.30;;;6.63;;
14316;SDS011;7242;50.858;6.586;2023-08-20T10:38:50;5.83;;;5.17;;
14316;SDS011;7242;50.858;6.586;2023-08-20T10:45:28;8.23;;;6.10;;
14316;SDS011;7242;50.858;6.586;2023-08-20T10:48:31;8.97;;;6.63;;
14316;SDS011;7242;50.858;6.586;2023-08-20T10:51:35;6.43;;;5.73;;
14316;SDS011;7242;50.858;6.586;2023-08-20T10:54:37;7.77;;;6.23;;
14316;SDS011;7242;50.858;6.586;2023-08-20T10:57:38;7.63;;;5.63;;
14316;SDS011;7242;50.858;6.586;2023-08-20T11:00:39;6.50;;;5.43;;
14316;SDS011;7242;50.858;6.586;2023-08-20T11:03:40;7.57;;;5.80;;
14316;SDS011;7242;50.858;6.586;2023-08-20T11:06:42;7.53;;;5.80;;
14316;SDS011;7242;50.858;6.586;2023-08-20T11:09:43;6.53;;;5.27;;
14316;SDS011;7242;50.858;6.586;2023-08-20T11:12:46;7.20;;;5.20;;
14316;SDS011;7242;50.858;6.586;2023-08-20T11:15:47;6.70;;;5.50;;
14316;SDS011;7242;50.858;6.586;2023-08-20T11:18:48;5.40;;;4.73;;
14316;SDS011;7242;50.858;6.586;2023-08-20T11:21:49;6.53;;;5.70;;
14316;SDS011;7242;50.858;6.586;2023-08-20T11:24:50;6.43;;;5.27;;
14316;SDS011;7242;50.858;6.586;2023-08-20T11:27:51;5.67;;;4.73;;
14316;SDS011;7242;50.858;6.586;2023-08-20T11:30:52;6.77;;;5.00;;
14316;SDS011;7242;50.858;6.586;2023-08-20T11:33:56;5.83;;;5.20;;
14316;SDS011;7242;50.858;6.586;2023-08-20T11:36:57;6.20;;;4.70;;
14316;SDS011;7242;50.858;6.586;2023-08-20T11:39:58;5.40;;;4.40;;
14316;SDS011;7242;50.858;6.586;2023-08-20T11:42:59;5.07;;;4.50;;
14316;SDS011;7242;50.858;6.586;2023-08-20T11:46:00;8.63;;;5.50;;
14316;SDS011;7242;50.858;6.586;2023-08-20T11:49:07;12.10;;;11.00;;
14316;SDS011;7242;50.858;6.586;2023-08-20T11:52:09;7.53;;;5.10;;
14316;SDS011;7242;50.858;6.586;2023-08-20T11:55:11;4.90;;;4.17;;
14316;SDS011;7242;50.858;6.586;2023-08-20T11:58:11;5.17;;;4.33;;
14316;SDS011;7242;50.858;6.586;2023-08-20T12:01:13;5.27;;;4.07;;
14316;SDS011;7242;50.858;6.586;2023-08-20T12:04:14;4.80;;;4.20;;
14316;SDS011;7242;50.858;6.586;2023-08-20T12:07:15;4.83;;;4.07;;
14316;SDS011;7242;50.858;6.586;2023-08-20T12:10:19;4.37;;;3.97;;
14316;SDS011;7242;50.858;6.586;2023-08-20T12:13:21;6.23;;;4.50;;
14316;SDS011;7242;50.858;6.586;2023-08-20T12:16:22;4.70;;;4.20;;
14316;SDS011;7242;50.858;6.586;2023-08-20T12:19:26;8.10;;;4.57;;
14316;SDS011;7242;50.858;6.586;2023-08-20T12:22:27;4.87;;;4.03;;
14316;SDS011;7242;50.858;6.586;2023-08-20T12:25:32;4.77;;;3.80;;
14316;SDS011;7242;50.858;6.586;2023-08-20T12:28:34;7.30;;;4.40;;
14316;SDS011;7242;50.858;6.586;2023-08-20T12:31:34;4.63;;;3.97;;
14316;SDS011;7242;50.858;6.586;2023-08-20T12:34:36;4.40;;;4.00;;
14316;SDS011;7242;50.858;6.586;2023-08-20T12:37:36;5.53;;;4.10;;
14316;SDS011;7242;50.858;6.586;2023-08-20T12:40:37;6.63;;;3.87;;
14316;SDS011;7242;50.858;6.586;2023-08-20T12:43:38;4.30;;;3.90;;
14316;SDS011;7242;50.858;6.586;2023-08-20T12:46:38;7.97;;;4.80;;
14316;SDS011;7242;50.858;6.586;2023-08-20T12:49:40;6.63;;;4.47;;
14316;SDS011;7242;50.858;6.586;2023-08-20T12:52:40;5.83;;;3.80;;
14316;SDS011;7242;50.858;6.586;2023-08-20T12:55:43;6.03;;;4.50;;
14316;SDS011;7242;50.858;6.586;2023-08-20T12:58:43;6.10;;;4.50;;
14316;SDS011;7242;50.858;6.586;2023-08-20T13:01:44;6.17;;;4.43;;
14316;SDS011;7242;50.858;6.586;2023-08-20T13:04:45;5.60;;;4.07;;
14316;SDS011;7242;50.858;6.586;2023-08-20T13:07:46;5.80;;;4.00;;
14316;SDS011;7242;50.858;6.586;2023-08-20T13:10:50;6.57;;;4.13;;
14316;SDS011;7242;50.858;6.586;2023-08-20T13:13:55;6.30;;;3.80;;
14316;SDS011;7242;50.858;6.586;2023-08-20T13:16:55;4.73;;;3.77;;
14316;SDS011;7242;50.858;6.586;2023-08-20T13:19:57;4.93;;;4.07;;
14316;SDS011;7242;50.858;6.586;2023-08-20T13:22:58;4.37;;;3.40;;
14316;SDS011;7242;50.858;6.586;2023-08-20T13:25:58;4.47;;;3.63;;
14316;SDS011;7242;50.858;6.586;2023-08-20T13:28:59;5.07;;;3.80;;
14316;SDS011;7242;50.858;6.586;2023-08-20T13:32:01;4.63;;;3.77;;
14316;SDS011;7242;50.858;6.586;2023-08-20T13:35:02;4.63;;;3.90;;
14316;SDS011;7242;50.858;6.586;2023-08-20T13:38:06;4.00;;;3.57;;
14316;SDS011;7242;50.858;6.586;2023-08-20T13:41:07;5.13;;;3.70;;
14316;SDS011;7242;50.858;6.586;2023-08-20T13:44:09;5.03;;;3.60;;
14316;SDS011;7242;50.858;6.586;2023-08-20T13:47:10;4.37;;;3.63;;
14316;SDS011;7242;50.858;6.586;2023-08-20T13:50:11;4.57;;;3.43;;
14316;SDS011;7242;50.858;6.586;2023-08-20T13:53:12;3.63;;;3.00;;
14316;SDS011;7242;50.858;6.586;2023-08-20T13:56:13;3.83;;;3.37;;
14316;SDS011;7242;50.858;6.586;2023-08-20T13:59:14;4.70;;;3.10;;
14316;SDS011;7242;50.858;6.586;2023-08-20T14:02:14;5.57;;;3.57;;
14316;SDS011;7242;50.858;6.586;2023-08-20T14:05:15;3.50;;;3.20;;
14316;SDS011;7242;50.858;6.586;2023-08-20T14:08:16;3.45;;;3.15;;
14316;SDS011;7242;50.858;6.586;2023-08-20T14:11:17;3.90;;;2.97;;
14316;SDS011;7242;50.858;6.586;2023-08-20T14:14:18;3.50;;;3.13;;
14316;SDS011;7242;50.858;6.586;2023-08-20T14:17:18;3.83;;;2.70;;
14316;SDS011;7242;50.858;6.586;2023-08-20T14:20:19;4.10;;;3.00;;
14316;SDS011;7242;50.858;6.586;2023-08-20T14:23:20;3.43;;;2.80;;
14316;SDS011;7242;50.858;6.586;2023-08-20T14:26:20;3.43;;;2.60;;
14316;SDS011;7242;50.858;6.586;2023-08-20T14:29:21;3.40;;;2.83;;
14316;SDS011;7242;50.858;6.586;2023-08-20T14:32:22;3.70;;;2.83;;
14316;SDS011;7242;50.858;6.586;2023-08-20T14:35:23;3.43;;;2.60;;
14316;SDS011;7242;50.858;6.586;2023-08-20T14:38:24;3.63;;;2.80;;
14316;SDS011;7242;50.858;6.586;2023-08-20T14:41:25;3.77;;;2.90;;
14316;SDS011;7242;50.858;6.586;2023-08-20T14:44:26;3.67;;;2.90;;
14316;SDS011;7242;50.858;6.586;2023-08-20T14:47:27;4.07;;;3.17;;
14316;SDS011;7242;50.858;6.586;2023-08-20T14:50:28;6.67;;;3.10;;
14316;SDS011;7242;50.858;6.586;2023-08-20T14:53:28;3.90;;;2.60;;
14316;SDS011;7242;50.858;6.586;2023-08-20T14:56:29;2.73;;;2.47;;
14316;SDS011;7242;50.858;6.586;2023-08-20T14:59:29;4.10;;;2.70;;
14316;SDS011;7242;50.858;6.586;2023-08-20T15:02:31;5.30;;;2.73;;
14316;SDS011;7242;50.858;6.586;2023-08-20T15:05:32;3.83;;;2.87;;
14316;SDS011;7242;50.858;6.586;2023-08-20T15:08:33;4.23;;;2.50;;
14316;SDS011;7242;50.858;6.586;2023-08-20T15:11:33;3.13;;;2.60;;
14316;SDS011;7242;50.858;6.586;2023-08-20T15:14:34;3.43;;;2.60;;
14316;SDS011;7242;50.858;6.586;2023-08-20T15:17:35;2.93;;;2.63;;
14316;SDS011;7242;50.858;6.586;2023-08-20T15:20:36;3.90;;;2.60;;
14316;SDS011;7242;50.858;6.586;2023-08-20T15:23:37;3.80;;;2.73;;
14316;SDS011;7242;50.858;6.586;2023-08-20T15:26:38;3.50;;;2.70;;
14316;SDS011;7242;50.858;6.586;2023-08-20T15:29:39;4.90;;;2.70;;
14316;SDS011;7242;50.858;6.586;2023-08-20T15:32:40;7.30;;;3.10;;
14316;SDS011;7242;50.858;6.586;2023-08-20T15:35:40;3.37;;;2.60;;
14316;SDS011;7242;50.858;6.586;2023-08-20T15:38:41;3.23;;;2.80;;
14316;SDS011;7242;50.858;6.586;2023-08-20T15:41:42;6.67;;;2.60;;
14316;SDS011;7242;50.858;6.586;2023-08-20T15:44:46;3.73;;;2.67;;
14316;SDS011;7242;50.858;6.586;2023-08-20T15:47:48;4.47;;;2.57;;
14316;SDS011;7242;50.858;6.586;2023-08-20T15:50:49;4.40;;;2.80;;
14316;SDS011;7242;50.858;6.586;2023-08-20T15:53:50;3.97;;;2.50;;
14316;SDS011;7242;50.858;6.586;2023-08-20T15:56:50;4.27;;;2.70;;
14316;SDS011;7242;50.858;6.586;2023-08-20T15:59:52;3.47;;;2.57;;
14316;SDS011;7242;50.858;6.586;2023-08-20T16:02:52;3.17;;;2.50;;
14316;SDS011;7242;50.858;6.586;2023-08-20T16:05:53;3.63;;;2.40;;
14316;SDS011;7242;50.858;6.586;2023-08-20T16:08:54;4.17;;;2.53;;
14316;SDS011;7242;50.858;6.586;2023-08-20T16:11:55;3.07;;;2.77;;
14316;SDS011;7242;50.858;6.586;2023-08-20T16:14:56;2.97;;;2.30;;
14316;SDS011;7242;50.858;6.586;2023-08-20T16:17:57;2.90;;;2.30;;
14316;SDS011;7242;50.858;6.586;2023-08-20T16:20:58;2.83;;;2.33;;
14316;SDS011;7242;50.858;6.586;2023-08-20T16:23:59;3.87;;;2.50;;
14316;SDS011;7242;50.858;6.586;2023-08-20T16:27:00;5.00;;;2.40;;
14316;SDS011;7242;50.858;6.586;2023-08-20T16:30:01;3.47;;;2.30;;
14316;SDS011;7242;50.858;6.586;2023-08-20T16:33:01;4.13;;;2.73;;
14316;SDS011;7242;50.858;6.586;2023-08-20T16:36:02;5.60;;;2.70;;
14316;SDS011;7242;50.858;6.586;2023-08-20T16:39:03;9.73;;;2.40;;
14316;SDS011;7242;50.858;6.586;2023-08-20T16:42:04;3.47;;;2.40;;
14316;SDS011;7242;50.858;6.586;2023-08-20T16:45:05;3.73;;;2.40;;
14316;SDS011;7242;50.858;6.586;2023-08-20T16:48:06;6.53;;;2.50;;
14316;SDS011;7242;50.858;6.586;2023-08-20T16:51:07;3.60;;;2.20;;
14316;SDS011;7242;50.858;6.586;2023-08-20T16:54:07;6.13;;;2.57;;
14316;SDS011;7242;50.858;6.586;2023-08-20T16:57:08;5.80;;;2.60;;
14316;SDS011;7242;50.858;6.586;2023-08-20T17:00:09;3.73;;;2.80;;
14316;SDS011;7242;50.858;6.586;2023-08-20T17:03:11;4.13;;;2.73;;
14316;SDS011;7242;50.858;6.586;2023-08-20T17:06:12;4.60;;;2.80;;
14316;SDS011;7242;50.858;6.586;2023-08-20T17:09:13;5.23;;;2.53;;
14316;SDS011;7242;50.858;6.586;2023-08-20T17:12:15;3.80;;;2.80;;
14316;SDS011;7242;50.858;6.586;2023-08-20T17:15:16;5.93;;;2.90;;
14316;SDS011;7242;50.858;6.586;2023-08-20T17:18:19;7.30;;;2.83;;
14316;SDS011;7242;50.858;6.586;2023-08-20T17:21:21;7.57;;;2.80;;
14316;SDS011;7242;50.858;6.586;2023-08-20T17:24:22;5.47;;;3.10;;
14316;SDS011;7242;50.858;6.586;2023-08-20T17:27:23;8.50;;;3.00;;
14316;SDS011;7242;50.858;6.586;2023-08-20T17:30:24;6.87;;;2.70;;
14316;SDS011;7242;50.858;6.586;2023-08-20T17:33:24;8.10;;;3.17;;
14316;SDS011;7242;50.858;6.586;2023-08-20T17:36:25;7.53;;;3.00;;
14316;SDS011;7242;50.858;6.586;2023-08-20T17:39:26;7.03;;;2.73;;
14316;SDS011;7242;50.858;6.586;2023-08-20T17:42:27;8.43;;;2.70;;
14316;SDS011;7242;50.858;6.586;2023-08-20T17:45:28;9.03;;;3.07;;
14316;SDS011;7242;50.858;6.586;2023-08-20T17:48:29;3.77;;;2.60;;
14316;SDS011;7242;50.858;6.586;2023-08-20T17:51:30;5.23;;;3.00;;
14316;SDS011;7242;50.858;6.586;2023-08-20T17:54:41;4.23;;;3.00;;
14316;SDS011;7242;50.858;6.586;2023-08-20T17:57:42;5.00;;;2.70;;
14316;SDS011;7242;50.858;6.586;2023-08-20T18:00:46;3.73;;;3.00;;
14316;SDS011;7242;50.858;6.586;2023-08-20T18:03:47;4.47;;;2.90;;
14316;SDS011;7242;50.858;6.586;2023-08-20T18:06:48;5.37;;;3.03;;
14316;SDS011;7242;50.858;6.586;2023-08-20T18:09:48;5.57;;;3.00;;
14316;SDS011;7242;50.858;6.586;2023-08-20T18:12:49;4.83;;;2.90;;
14316;SDS011;7242;50.858;6.586;2023-08-20T18:15:50;5.93;;;3.13;;
14316;SDS011;7242;50.858;6.586;2023-08-20T18:18:51;5.60;;;3.20;;
14316;SDS011;7242;50.858;6.586;2023-08-20T18:21:51;6.33;;;3.20;;
14316;SDS011;7242;50.858;6.586;2023-08-20T18:24:52;5.27;;;3.03;;
14316;SDS011;7242;50.858;6.586;2023-08-20T18:27:53;4.33;;;2.90;;
14316;SDS011;7242;50.858;6.586;2023-08-20T18:30:54;6.53;;;2.70;;
14316;SDS011;7242;50.858;6.586;2023-08-20T18:33:55;3.80;;;2.93;;
14316;SDS011;7242;50.858;6.586;2023-08-20T18:36:55;6.13;;;2.90;;
14316;SDS011;7242;50.858;6.586;2023-08-20T18:39:56;4.30;;;3.00;;